sensor_id;sensor_type;location;lat;lon;timestamp;temperature;humidity
20839;DHT22;10580;51.092;6.828;2023-11-21T00:00:55;8.10;77.20
20839;DHT22;10580;51.092;6.828;2023-11-21T00:03:20;8.10;77.30
20839;DHT22;10580;51.092;6.828;2023-11-21T00:05:48;8.00;77.20
20839;DHT22;10580;51.092;6.828;2023-11-21T00:08:14;7.90;76.40
20839;DHT22;10580;51.092;6.828;2023-11-21T00:10:39;7.80;76.50
20839;DHT22;10580;51.092;6.828;2023-11-21T00:13:05;7.80;75.80
20839;DHT22;10580;51.092;6.828;2023-11-21T00:15:31;7.80;74.40
20839;DHT22;10580;51.092;6.828;2023-11-21T00:17:56;7.70;74.90
20839;DHT22;10580;51.092;6.828;2023-11-21T00:20:22;7.70;75.80
20839;DHT22;10580;51.092;6.828;2023-11-21T00:22:47;7.70;77.90
20839;DHT22;10580;51.092;6.828;2023-11-21T00:25:13;7.70;78.50
20839;DHT22;10580;51.092;6.828;2023-11-21T00:27:41;7.70;79.20
20839;DHT22;10580;51.092;6.828;2023-11-21T00:30:07;7.70;80.10
20839;DHT22;10580;51.092;6.828;2023-11-21T00:32:35;7.70;81.50
20839;DHT22;10580;51.092;6.828;2023-11-21T00:35:01;7.70;83.80
20839;DHT22;10580;51.092;6.828;2023-11-21T00:37:26;7.70;85.30
20839;DHT22;10580;51.092;6.828;2023-11-21T00:39:52;7.60;86.80
20839;DHT22;10580;51.092;6.828;2023-11-21T00:42:18;7.70;89.70
20839;DHT22;10580;51.092;6.828;2023-11-21T00:44:43;7.70;91.00
20839;DHT22;10580;51.092;6.828;2023-11-21T00:47:09;7.70;92.10
20839;DHT22;10580;51.092;6.828;2023-11-21T00:49:34;7.80;93.20
20839;DHT22;10580;51.092;6.828;2023-11-21T00:52:00;7.70;93.70
20839;DHT22;10580;51.092;6.828;2023-11-21T00:54:27;7.80;94.30
20839;DHT22;10580;51.092;6.828;2023-11-21T00:56:53;7.80;95.00
20839;DHT22;10580;51.092;6.828;2023-11-21T00:59:18;7.80;95.50
20839;DHT22;10580;51.092;6.828;2023-11-21T01:01:44;7.70;95.80
20839;DHT22;10580;51.092;6.828;2023-11-21T01:04:09;7.80;96.60
20839;DHT22;10580;51.092;6.828;2023-11-21T01:06:35;7.80;97.30
20839;DHT22;10580;51.092;6.828;2023-11-21T01:09:01;7.80;97.70
20839;DHT22;10580;51.092;6.828;2023-11-21T01:11:26;7.80;98.00
20839;DHT22;10580;51.092;6.828;2023-11-21T01:13:52;7.80;98.20
20839;DHT22;10580;51.092;6.828;2023-11-21T01:16:18;7.70;98.30
20839;DHT22;10580;51.092;6.828;2023-11-21T01:18:44;7.70;99.10
20839;DHT22;10580;51.092;6.828;2023-11-21T01:21:09;7.70;99.90
20839;DHT22;10580;51.092;6.828;2023-11-21T01:23:35;7.70;99.90
20839;DHT22;10580;51.092;6.828;2023-11-21T01:26:01;7.70;99.90
20839;DHT22;10580;51.092;6.828;2023-11-21T01:28:26;7.70;99.90
20839;DHT22;10580;51.092;6.828;2023-11-21T01:30:52;7.70;99.90
20839;DHT22;10580;51.092;6.828;2023-11-21T01:33:22;7.70;99.90
20839;DHT22;10580;51.092;6.828;2023-11-21T01:35:47;7.70;99.90
20839;DHT22;10580;51.092;6.828;2023-11-21T01:38:13;7.70;99.90
20839;DHT22;10580;51.092;6.828;2023-11-21T01:40:40;7.70;99.90
20839;DHT22;10580;51.092;6.828;2023-11-21T01:43:05;7.70;99.90
20839;DHT22;10580;51.092;6.828;2023-11-21T01:45:31;7.70;99.90
20839;DHT22;10580;51.092;6.828;2023-11-21T01:47:59;7.60;99.90
20839;DHT22;10580;51.092;6.828;2023-11-21T01:50:26;7.60;99.90
20839;DHT22;10580;51.092;6.828;2023-11-21T01:52:52;7.50;99.90
20839;DHT22;10580;51.092;6.828;2023-11-21T01:55:18;7.40;99.90
20839;DHT22;10580;51.092;6.828;2023-11-21T01:57:45;7.40;99.90
20839;DHT22;10580;51.092;6.828;2023-11-21T02:00:11;7.30;99.90
20839;DHT22;10580;51.092;6.828;2023-11-21T02:02:48;7.30;99.90
20839;DHT22;10580;51.092;6.828;2023-11-21T02:05:17;7.20;99.30
20839;DHT22;10580;51.092;6.828;2023-11-21T02:07:44;7.20;99.10
20839;DHT22;10580;51.092;6.828;2023-11-21T02:10:10;7.20;99.10
20839;DHT22;10580;51.092;6.828;2023-11-21T02:12:42;7.20;99.40
20839;DHT22;10580;51.092;6.828;2023-11-21T02:15:10;7.20;99.90
20839;DHT22;10580;51.092;6.828;2023-11-21T02:17:41;7.20;99.90
20839;DHT22;10580;51.092;6.828;2023-11-21T02:20:10;7.20;99.90
20839;DHT22;10580;51.092;6.828;2023-11-21T02:22:41;7.20;99.90
20839;DHT22;10580;51.092;6.828;2023-11-21T02:25:08;7.20;99.90
20839;DHT22;10580;51.092;6.828;2023-11-21T02:27:33;7.30;99.90
20839;DHT22;10580;51.092;6.828;2023-11-21T02:29:59;7.30;99.90
20839;DHT22;10580;51.092;6.828;2023-11-21T02:32:26;7.40;99.90
20839;DHT22;10580;51.092;6.828;2023-11-21T02:34:52;7.40;99.90
20839;DHT22;10580;51.092;6.828;2023-11-21T02:37:19;7.40;99.90
20839;DHT22;10580;51.092;6.828;2023-11-21T02:39:44;7.50;99.90
20839;DHT22;10580;51.092;6.828;2023-11-21T02:42:10;7.50;99.90
20839;DHT22;10580;51.092;6.828;2023-11-21T02:44:35;7.50;99.90
20839;DHT22;10580;51.092;6.828;2023-11-21T02:47:01;7.50;99.90
20839;DHT22;10580;51.092;6.828;2023-11-21T02:49:26;7.60;99.90
20839;DHT22;10580;51.092;6.828;2023-11-21T02:51:55;7.50;99.90
20839;DHT22;10580;51.092;6.828;2023-11-21T02:54:21;7.60;99.90
20839;DHT22;10580;51.092;6.828;2023-11-21T02:56:47;7.60;99.90
20839;DHT22;10580;51.092;6.828;2023-11-21T02:59:14;7.60;99.90
20839;DHT22;10580;51.092;6.828;2023-11-21T03:01:41;7.60;99.90
20839;DHT22;10580;51.092;6.828;2023-11-21T03:04:06;7.60;99.90
20839;DHT22;10580;51.092;6.828;2023-11-21T03:06:32;7.70;99.90
20839;DHT22;10580;51.092;6.828;2023-11-21T03:08:57;7.70;99.90
20839;DHT22;10580;51.092;6.828;2023-11-21T03:11:23;7.70;99.90
20839;DHT22;10580;51.092;6.828;2023-11-21T03:13:48;7.70;99.90
20839;DHT22;10580;51.092;6.828;2023-11-21T03:16:16;7.70;99.90
20839;DHT22;10580;51.092;6.828;2023-11-21T03:18:41;7.70;99.90
20839;DHT22;10580;51.092;6.828;2023-11-21T03:21:07;7.70;99.90
20839;DHT22;10580;51.092;6.828;2023-11-21T03:23:36;7.80;99.90
20839;DHT22;10580;51.092;6.828;2023-11-21T03:26:03;7.80;99.90
20839;DHT22;10580;51.092;6.828;2023-11-21T03:28:28;7.80;99.90
20839;DHT22;10580;51.092;6.828;2023-11-21T03:30:55;7.80;99.90
20839;DHT22;10580;51.092;6.828;2023-11-21T03:33:21;7.80;99.90
20839;DHT22;10580;51.092;6.828;2023-11-21T03:35:47;7.80;99.90
20839;DHT22;10580;51.092;6.828;2023-11-21T03:38:13;7.80;99.90
20839;DHT22;10580;51.092;6.828;2023-11-21T03:40:39;7.80;99.90
20839;DHT22;10580;51.092;6.828;2023-11-21T03:43:07;7.80;99.90
20839;DHT22;10580;51.092;6.828;2023-11-21T03:45:33;7.80;99.90
20839;DHT22;10580;51.092;6.828;2023-11-21T03:47:58;7.80;99.90
20839;DHT22;10580;51.092;6.828;2023-11-21T03:50:28;7.80;99.90
20839;DHT22;10580;51.092;6.828;2023-11-21T03:52:53;7.80;99.90
20839;DHT22;10580;51.092;6.828;2023-11-21T03:55:19;7.80;99.90
20839;DHT22;10580;51.092;6.828;2023-11-21T03:57:44;7.80;99.90
20839;DHT22;10580;51.092;6.828;2023-11-21T04:00:10;7.80;99.90
20839;DHT22;10580;51.092;6.828;2023-11-21T04:02:36;7.80;99.90
20839;DHT22;10580;51.092;6.828;2023-11-21T04:05:02;7.80;99.90
20839;DHT22;10580;51.092;6.828;2023-11-21T04:07:28;7.80;99.90
20839;DHT22;10580;51.092;6.828;2023-11-21T04:09:54;7.80;99.90
20839;DHT22;10580;51.092;6.828;2023-11-21T04:12:19;7.80;99.90
20839;DHT22;10580;51.092;6.828;2023-11-21T04:14:45;7.80;99.90
20839;DHT22;10580;51.092;6.828;2023-11-21T04:17:10;7.80;99.90
20839;DHT22;10580;51.092;6.828;2023-11-21T04:19:36;7.80;99.90
20839;DHT22;10580;51.092;6.828;2023-11-21T04:22:01;7.70;99.90
20839;DHT22;10580;51.092;6.828;2023-11-21T04:24:27;7.80;99.90
20839;DHT22;10580;51.092;6.828;2023-11-21T04:26:53;7.80;99.90
20839;DHT22;10580;51.092;6.828;2023-11-21T04:29:18;7.80;99.90
20839;DHT22;10580;51.092;6.828;2023-11-21T04:31:44;7.80;99.90
20839;DHT22;10580;51.092;6.828;2023-11-21T04:34:10;7.80;99.90
20839;DHT22;10580;51.092;6.828;2023-11-21T04:36:35;7.80;99.90
20839;DHT22;10580;51.092;6.828;2023-11-21T04:39:01;7.80;99.90
20839;DHT22;10580;51.092;6.828;2023-11-21T04:41:26;7.80;99.90
20839;DHT22;10580;51.092;6.828;2023-11-21T04:43:52;7.80;99.90
20839;DHT22;10580;51.092;6.828;2023-11-21T04:46:17;7.80;99.90
20839;DHT22;10580;51.092;6.828;2023-11-21T04:48:43;7.80;99.90
20839;DHT22;10580;51.092;6.828;2023-11-21T04:51:09;7.80;99.90
20839;DHT22;10580;51.092;6.828;2023-11-21T04:53:36;7.80;99.90
20839;DHT22;10580;51.092;6.828;2023-11-21T04:56:02;7.70;99.90
20839;DHT22;10580;51.092;6.828;2023-11-21T04:58:28;7.70;99.90
20839;DHT22;10580;51.092;6.828;2023-11-21T05:00:54;7.70;99.90
20839;DHT22;10580;51.092;6.828;2023-11-21T05:03:20;7.70;99.90
20839;DHT22;10580;51.092;6.828;2023-11-21T05:05:45;7.70;99.90
20839;DHT22;10580;51.092;6.828;2023-11-21T05:08:11;7.70;99.90
20839;DHT22;10580;51.092;6.828;2023-11-21T05:10:37;7.70;99.90
20839;DHT22;10580;51.092;6.828;2023-11-21T05:13:04;7.70;99.90
20839;DHT22;10580;51.092;6.828;2023-11-21T05:15:35;7.70;99.90
20839;DHT22;10580;51.092;6.828;2023-11-21T05:18:00;7.70;99.90
20839;DHT22;10580;51.092;6.828;2023-11-21T05:20:26;7.70;99.90
20839;DHT22;10580;51.092;6.828;2023-11-21T05:22:51;7.70;99.90
20839;DHT22;10580;51.092;6.828;2023-11-21T05:25:17;7.70;99.90
20839;DHT22;10580;51.092;6.828;2023-11-21T05:27:46;7.70;99.90
20839;DHT22;10580;51.092;6.828;2023-11-21T05:30:13;7.70;99.90
20839;DHT22;10580;51.092;6.828;2023-11-21T05:32:39;7.70;99.90
20839;DHT22;10580;51.092;6.828;2023-11-21T05:35:05;7.70;99.90
20839;DHT22;10580;51.092;6.828;2023-11-21T05:37:35;7.70;99.90
20839;DHT22;10580;51.092;6.828;2023-11-21T05:40:01;7.70;99.90
20839;DHT22;10580;51.092;6.828;2023-11-21T05:42:32;7.70;99.90
20839;DHT22;10580;51.092;6.828;2023-11-21T05:44:57;7.70;99.90
20839;DHT22;10580;51.092;6.828;2023-11-21T05:47:24;7.60;99.90
20839;DHT22;10580;51.092;6.828;2023-11-21T05:49:51;7.60;99.90
20839;DHT22;10580;51.092;6.828;2023-11-21T05:52:17;7.60;99.90
20839;DHT22;10580;51.092;6.828;2023-11-21T05:54:43;7.60;99.90
20839;DHT22;10580;51.092;6.828;2023-11-21T05:57:09;7.60;99.90
20839;DHT22;10580;51.092;6.828;2023-11-21T05:59:34;7.60;99.90
20839;DHT22;10580;51.092;6.828;2023-11-21T06:02:00;7.60;99.90
20839;DHT22;10580;51.092;6.828;2023-11-21T06:04:25;7.60;99.90
20839;DHT22;10580;51.092;6.828;2023-11-21T06:06:52;7.60;99.90
20839;DHT22;10580;51.092;6.828;2023-11-21T06:09:18;7.60;99.90
20839;DHT22;10580;51.092;6.828;2023-11-21T06:11:43;7.60;99.90
20839;DHT22;10580;51.092;6.828;2023-11-21T06:14:09;7.60;99.90
20839;DHT22;10580;51.092;6.828;2023-11-21T06:16:36;7.60;99.90
20839;DHT22;10580;51.092;6.828;2023-11-21T06:19:01;7.60;99.90
20839;DHT22;10580;51.092;6.828;2023-11-21T06:21:27;7.60;99.90
20839;DHT22;10580;51.092;6.828;2023-11-21T06:23:53;7.60;99.90
20839;DHT22;10580;51.092;6.828;2023-11-21T06:26:18;7.60;99.90
20839;DHT22;10580;51.092;6.828;2023-11-21T06:28:44;7.60;99.90
20839;DHT22;10580;51.092;6.828;2023-11-21T06:31:10;7.70;99.90
20839;DHT22;10580;51.092;6.828;2023-11-21T06:33:36;7.60;99.90
20839;DHT22;10580;51.092;6.828;2023-11-21T06:36:01;7.60;99.90
20839;DHT22;10580;51.092;6.828;2023-11-21T06:38:31;7.60;99.90
20839;DHT22;10580;51.092;6.828;2023-11-21T06:40:57;7.70;99.90
20839;DHT22;10580;51.092;6.828;2023-11-21T06:43:24;7.70;99.90
20839;DHT22;10580;51.092;6.828;2023-11-21T06:45:49;7.70;99.90
20839;DHT22;10580;51.092;6.828;2023-11-21T06:48:15;7.70;99.90
20839;DHT22;10580;51.092;6.828;2023-11-21T06:50:40;7.70;99.90
20839;DHT22;10580;51.092;6.828;2023-11-21T06:53:07;7.80;99.90
20839;DHT22;10580;51.092;6.828;2023-11-21T06:55:33;7.80;99.90
20839;DHT22;10580;51.092;6.828;2023-11-21T06:58:00;7.80;99.90
20839;DHT22;10580;51.092;6.828;2023-11-21T07:00:26;7.90;99.90
20839;DHT22;10580;51.092;6.828;2023-11-21T07:02:54;7.90;99.90
20839;DHT22;10580;51.092;6.828;2023-11-21T07:05:21;7.90;99.90
20839;DHT22;10580;51.092;6.828;2023-11-21T07:07:47;8.00;99.90
20839;DHT22;10580;51.092;6.828;2023-11-21T07:10:13;8.00;99.90
20839;DHT22;10580;51.092;6.828;2023-11-21T07:12:39;8.00;99.90
20839;DHT22;10580;51.092;6.828;2023-11-21T07:15:06;8.00;99.90
20839;DHT22;10580;51.092;6.828;2023-11-21T07:17:34;8.00;99.90
20839;DHT22;10580;51.092;6.828;2023-11-21T07:20:04;8.10;99.90
20839;DHT22;10580;51.092;6.828;2023-11-21T07:22:29;8.10;99.90
20839;DHT22;10580;51.092;6.828;2023-11-21T07:24:55;8.10;99.90
20839;DHT22;10580;51.092;6.828;2023-11-21T07:27:22;8.10;99.90
20839;DHT22;10580;51.092;6.828;2023-11-21T07:29:47;8.20;99.90
20839;DHT22;10580;51.092;6.828;2023-11-21T07:32:14;8.20;99.90
20839;DHT22;10580;51.092;6.828;2023-11-21T07:34:40;8.20;99.90
20839;DHT22;10580;51.092;6.828;2023-11-21T07:37:07;8.20;99.90
20839;DHT22;10580;51.092;6.828;2023-11-21T07:39:34;8.20;99.90
20839;DHT22;10580;51.092;6.828;2023-11-21T07:42:01;8.30;99.90
20839;DHT22;10580;51.092;6.828;2023-11-21T07:44:28;8.30;99.90
20839;DHT22;10580;51.092;6.828;2023-11-21T07:46:53;8.30;99.90
20839;DHT22;10580;51.092;6.828;2023-11-21T07:49:23;8.30;99.90
20839;DHT22;10580;51.092;6.828;2023-11-21T07:51:48;8.40;99.90
20839;DHT22;10580;51.092;6.828;2023-11-21T07:54:14;8.40;99.90
20839;DHT22;10580;51.092;6.828;2023-11-21T07:56:41;8.40;99.90
20839;DHT22;10580;51.092;6.828;2023-11-21T07:59:06;8.50;99.90
20839;DHT22;10580;51.092;6.828;2023-11-21T08:01:32;8.50;99.90
20839;DHT22;10580;51.092;6.828;2023-11-21T08:03:58;8.50;99.90
20839;DHT22;10580;51.092;6.828;2023-11-21T08:06:27;8.60;99.90
20839;DHT22;10580;51.092;6.828;2023-11-21T08:08:53;8.60;99.90
20839;DHT22;10580;51.092;6.828;2023-11-21T08:11:19;8.70;99.90
20839;DHT22;10580;51.092;6.828;2023-11-21T08:13:45;8.70;99.90
20839;DHT22;10580;51.092;6.828;2023-11-21T08:16:11;8.70;99.90
20839;DHT22;10580;51.092;6.828;2023-11-21T08:18:37;8.70;99.90
20839;DHT22;10580;51.092;6.828;2023-11-21T08:21:03;8.70;99.90
20839;DHT22;10580;51.092;6.828;2023-11-21T08:23:30;8.60;99.90
20839;DHT22;10580;51.092;6.828;2023-11-21T08:25:56;8.60;99.90
20839;DHT22;10580;51.092;6.828;2023-11-21T08:28:21;8.60;99.90
20839;DHT22;10580;51.092;6.828;2023-11-21T08:30:48;8.50;99.90
20839;DHT22;10580;51.092;6.828;2023-11-21T08:33:14;8.50;99.90
20839;DHT22;10580;51.092;6.828;2023-11-21T08:35:39;8.50;99.90
20839;DHT22;10580;51.092;6.828;2023-11-21T08:38:05;8.60;99.90
20839;DHT22;10580;51.092;6.828;2023-11-21T08:40:31;8.60;99.90
20839;DHT22;10580;51.092;6.828;2023-11-21T08:42:56;8.70;99.90
20839;DHT22;10580;51.092;6.828;2023-11-21T08:45:24;8.70;99.90
20839;DHT22;10580;51.092;6.828;2023-11-21T08:47:51;8.70;99.90
20839;DHT22;10580;51.092;6.828;2023-11-21T08:50:17;8.80;99.90
20839;DHT22;10580;51.092;6.828;2023-11-21T08:52:44;8.80;99.90
20839;DHT22;10580;51.092;6.828;2023-11-21T08:55:11;8.80;99.90
20839;DHT22;10580;51.092;6.828;2023-11-21T08:57:38;8.70;99.90
20839;DHT22;10580;51.092;6.828;2023-11-21T09:00:06;8.70;99.90
20839;DHT22;10580;51.092;6.828;2023-11-21T09:02:38;8.80;99.90
20839;DHT22;10580;51.092;6.828;2023-11-21T09:05:07;8.80;99.90
20839;DHT22;10580;51.092;6.828;2023-11-21T09:07:34;8.80;99.90
20839;DHT22;10580;51.092;6.828;2023-11-21T09:09:59;8.90;99.90
20839;DHT22;10580;51.092;6.828;2023-11-21T09:12:25;8.90;99.90
20839;DHT22;10580;51.092;6.828;2023-11-21T09:14:51;8.90;99.90
20839;DHT22;10580;51.092;6.828;2023-11-21T09:17:17;8.90;99.90
20839;DHT22;10580;51.092;6.828;2023-11-21T09:19:42;8.90;99.90
20839;DHT22;10580;51.092;6.828;2023-11-21T09:22:15;9.00;99.90
20839;DHT22;10580;51.092;6.828;2023-11-21T09:24:41;9.00;99.90
20839;DHT22;10580;51.092;6.828;2023-11-21T09:27:07;9.10;99.90
20839;DHT22;10580;51.092;6.828;2023-11-21T09:29:33;9.10;99.90
20839;DHT22;10580;51.092;6.828;2023-11-21T09:32:05;9.00;99.90
20839;DHT22;10580;51.092;6.828;2023-11-21T09:34:33;9.00;99.90
20839;DHT22;10580;51.092;6.828;2023-11-21T09:37:05;9.10;99.90
20839;DHT22;10580;51.092;6.828;2023-11-21T09:39:36;9.00;97.60
20839;DHT22;10580;51.092;6.828;2023-11-21T09:44:57;9.10;96.10
20839;DHT22;10580;51.092;6.828;2023-11-21T09:47:24;9.00;94.80
20839;DHT22;10580;51.092;6.828;2023-11-21T09:49:51;9.10;95.20
20839;DHT22;10580;51.092;6.828;2023-11-21T09:52:24;9.10;94.50
20839;DHT22;10580;51.092;6.828;2023-11-21T09:54:51;9.10;95.10
20839;DHT22;10580;51.092;6.828;2023-11-21T09:57:23;9.20;95.40
20839;DHT22;10580;51.092;6.828;2023-11-21T09:59:52;9.20;95.50
20839;DHT22;10580;51.092;6.828;2023-11-21T10:02:28;9.30;95.60
20839;DHT22;10580;51.092;6.828;2023-11-21T10:04:56;9.30;94.40
20839;DHT22;10580;51.092;6.828;2023-11-21T10:07:22;9.30;93.20
20839;DHT22;10580;51.092;6.828;2023-11-21T10:09:48;9.40;92.90
20839;DHT22;10580;51.092;6.828;2023-11-21T10:12:16;9.40;92.90
20839;DHT22;10580;51.092;6.828;2023-11-21T10:14:42;9.50;93.30
20839;DHT22;10580;51.092;6.828;2023-11-21T10:17:10;9.50;92.00
20839;DHT22;10580;51.092;6.828;2023-11-21T10:19:39;9.40;90.90
20839;DHT22;10580;51.092;6.828;2023-11-21T10:22:05;9.50;88.00
20839;DHT22;10580;51.092;6.828;2023-11-21T10:24:32;9.40;83.80
20839;DHT22;10580;51.092;6.828;2023-11-21T10:26:58;9.50;83.60
20839;DHT22;10580;51.092;6.828;2023-11-21T10:29:29;9.50;80.30
20839;DHT22;10580;51.092;6.828;2023-11-21T10:31:59;9.50;74.80
20839;DHT22;10580;51.092;6.828;2023-11-21T10:34:25;9.60;73.10
20839;DHT22;10580;51.092;6.828;2023-11-21T10:36:58;9.50;64.30
20839;DHT22;10580;51.092;6.828;2023-11-21T10:39:24;9.50;65.00
20839;DHT22;10580;51.092;6.828;2023-11-21T10:41:54;9.50;62.40
20839;DHT22;10580;51.092;6.828;2023-11-21T10:44:20;9.60;61.30
20839;DHT22;10580;51.092;6.828;2023-11-21T10:46:53;9.60;60.00
20839;DHT22;10580;51.092;6.828;2023-11-21T10:49:25;9.60;58.30
20839;DHT22;10580;51.092;6.828;2023-11-21T10:51:53;9.60;56.70
20839;DHT22;10580;51.092;6.828;2023-11-21T10:54:20;9.60;52.20
20839;DHT22;10580;51.092;6.828;2023-11-21T10:56:47;9.60;49.40
20839;DHT22;10580;51.092;6.828;2023-11-21T10:59:13;9.50;46.20
20839;DHT22;10580;51.092;6.828;2023-11-21T11:01:42;9.60;46.00
20839;DHT22;10580;51.092;6.828;2023-11-21T11:04:09;9.60;45.90
20839;DHT22;10580;51.092;6.828;2023-11-21T11:06:43;9.70;46.00
20839;DHT22;10580;51.092;6.828;2023-11-21T11:09:10;9.70;44.60
20839;DHT22;10580;51.092;6.828;2023-11-21T11:11:42;9.70;47.00
20839;DHT22;10580;51.092;6.828;2023-11-21T11:14:11;9.80;48.00
20839;DHT22;10580;51.092;6.828;2023-11-21T11:16:38;9.80;48.30
20839;DHT22;10580;51.092;6.828;2023-11-21T11:19:10;9.90;48.50
20839;DHT22;10580;51.092;6.828;2023-11-21T11:29:48;10.00;33.30
20839;DHT22;10580;51.092;6.828;2023-11-21T11:35:24;10.00;37.60
20839;DHT22;10580;51.092;6.828;2023-11-21T11:37:51;10.00;34.90
20839;DHT22;10580;51.092;6.828;2023-11-21T11:40:17;10.00;31.00
20839;DHT22;10580;51.092;6.828;2023-11-21T11:42:58;10.00;28.40
20839;DHT22;10580;51.092;6.828;2023-11-21T11:45:33;10.00;25.60
20839;DHT22;10580;51.092;6.828;2023-11-21T11:48:00;10.00;22.50
20839;DHT22;10580;51.092;6.828;2023-11-21T11:50:26;10.00;20.60
20839;DHT22;10580;51.092;6.828;2023-11-21T11:52:53;10.10;18.00
20839;DHT22;10580;51.092;6.828;2023-11-21T11:55:24;10.00;14.50
20839;DHT22;10580;51.092;6.828;2023-11-21T11:57:54;10.00;14.40
20839;DHT22;10580;51.092;6.828;2023-11-21T12:02:56;10.00;11.90
20839;DHT22;10580;51.092;6.828;2023-11-21T12:05:25;10.00;10.60
20839;DHT22;10580;51.092;6.828;2023-11-21T12:07:54;10.10;10.80
20839;DHT22;10580;51.092;6.828;2023-11-21T12:10:29;10.10;11.70
20839;DHT22;10580;51.092;6.828;2023-11-21T12:12:59;10.20;12.40
20839;DHT22;10580;51.092;6.828;2023-11-21T12:15:25;10.30;12.70
20839;DHT22;10580;51.092;6.828;2023-11-21T12:17:51;10.30;7.50
20839;DHT22;10580;51.092;6.828;2023-11-21T12:20:24;10.40;1.30
20839;DHT22;10580;51.092;6.828;2023-11-21T12:22:51;10.40;1.00
20839;DHT22;10580;51.092;6.828;2023-11-21T12:25:21;10.40;1.00
20839;DHT22;10580;51.092;6.828;2023-11-21T12:27:51;10.40;1.00
20839;DHT22;10580;51.092;6.828;2023-11-21T12:30:22;10.50;1.00
20839;DHT22;10580;51.092;6.828;2023-11-21T12:32:49;10.50;1.00
20839;DHT22;10580;51.092;6.828;2023-11-21T12:35:21;10.60;1.00
20839;DHT22;10580;51.092;6.828;2023-11-21T12:37:47;10.60;1.00
20839;DHT22;10580;51.092;6.828;2023-11-21T12:40:14;10.60;1.00
20839;DHT22;10580;51.092;6.828;2023-11-21T12:42:45;10.60;1.00
20839;DHT22;10580;51.092;6.828;2023-11-21T12:45:28;10.60;1.00
20839;DHT22;10580;51.092;6.828;2023-11-21T12:50:25;10.50;1.00
20839;DHT22;10580;51.092;6.828;2023-11-21T12:52:57;10.50;1.00
20839;DHT22;10580;51.092;6.828;2023-11-21T12:55:24;10.60;1.00
20839;DHT22;10580;51.092;6.828;2023-11-21T12:58:11;10.50;1.00
20839;DHT22;10580;51.092;6.828;2023-11-21T13:00:48;10.60;1.00
20839;DHT22;10580;51.092;6.828;2023-11-21T13:03:15;10.80;1.00
20839;DHT22;10580;51.092;6.828;2023-11-21T13:05:46;10.80;1.00
20839;DHT22;10580;51.092;6.828;2023-11-21T13:08:13;10.80;1.00
20839;DHT22;10580;51.092;6.828;2023-11-21T13:10:43;10.80;1.00
20839;DHT22;10580;51.092;6.828;2023-11-21T13:13:14;10.90;1.00
20839;DHT22;10580;51.092;6.828;2023-11-21T13:16:12;10.90;1.00
20839;DHT22;10580;51.092;6.828;2023-11-21T13:18:46;10.90;1.00
20839;DHT22;10580;51.092;6.828;2023-11-21T13:21:11;10.90;1.00
20839;DHT22;10580;51.092;6.828;2023-11-21T13:23:41;10.90;1.00
20839;DHT22;10580;51.092;6.828;2023-11-21T13:26:08;10.90;1.00
20839;DHT22;10580;51.092;6.828;2023-11-21T13:28:35;10.90;1.00
20839;DHT22;10580;51.092;6.828;2023-11-21T13:31:01;10.90;1.00
20839;DHT22;10580;51.092;6.828;2023-11-21T13:33:35;10.80;1.00
20839;DHT22;10580;51.092;6.828;2023-11-21T13:36:04;10.80;1.00
20839;DHT22;10580;51.092;6.828;2023-11-21T13:38:33;10.70;1.00
20839;DHT22;10580;51.092;6.828;2023-11-21T13:41:01;10.70;1.00
20839;DHT22;10580;51.092;6.828;2023-11-21T13:43:27;10.70;1.00
20839;DHT22;10580;51.092;6.828;2023-11-21T13:45:54;10.60;1.00
20839;DHT22;10580;51.092;6.828;2023-11-21T13:48:29;10.50;1.00
20839;DHT22;10580;51.092;6.828;2023-11-21T13:51:06;10.50;1.00
20839;DHT22;10580;51.092;6.828;2023-11-21T13:53:44;10.50;1.00
20839;DHT22;10580;51.092;6.828;2023-11-21T13:56:13;10.50;1.00
20839;DHT22;10580;51.092;6.828;2023-11-21T13:58:42;10.50;1.00
20839;DHT22;10580;51.092;6.828;2023-11-21T14:01:26;10.50;1.00
20839;DHT22;10580;51.092;6.828;2023-11-21T14:04:04;10.60;1.00
20839;DHT22;10580;51.092;6.828;2023-11-21T14:06:49;10.60;1.00
20839;DHT22;10580;51.092;6.828;2023-11-21T14:09:22;10.50;1.00
20839;DHT22;10580;51.092;6.828;2023-11-21T14:11:52;10.60;1.00
20839;DHT22;10580;51.092;6.828;2023-11-21T14:14:24;10.60;1.00
20839;DHT22;10580;51.092;6.828;2023-11-21T14:16:51;10.60;1.00
20839;DHT22;10580;51.092;6.828;2023-11-21T14:19:23;10.60;1.00
20839;DHT22;10580;51.092;6.828;2023-11-21T14:21:52;10.50;1.00
20839;DHT22;10580;51.092;6.828;2023-11-21T14:24:18;10.50;1.00
20839;DHT22;10580;51.092;6.828;2023-11-21T14:26:47;10.50;1.00
20839;DHT22;10580;51.092;6.828;2023-11-21T14:29:14;10.60;1.00
20839;DHT22;10580;51.092;6.828;2023-11-21T14:31:42;10.50;1.00
20839;DHT22;10580;51.092;6.828;2023-11-21T14:34:08;10.50;1.00
20839;DHT22;10580;51.092;6.828;2023-11-21T14:36:38;10.50;1.00
20839;DHT22;10580;51.092;6.828;2023-11-21T14:39:05;10.50;1.00
20839;DHT22;10580;51.092;6.828;2023-11-21T14:41:35;10.40;1.00
20839;DHT22;10580;51.092;6.828;2023-11-21T14:44:02;10.40;1.00
20839;DHT22;10580;51.092;6.828;2023-11-21T14:46:29;10.40;1.00
20839;DHT22;10580;51.092;6.828;2023-11-21T14:48:55;10.40;1.00
20839;DHT22;10580;51.092;6.828;2023-11-21T14:51:28;10.30;1.00
20839;DHT22;10580;51.092;6.828;2023-11-21T14:53:58;10.30;1.00
20839;DHT22;10580;51.092;6.828;2023-11-21T14:56:32;10.30;1.00
20839;DHT22;10580;51.092;6.828;2023-11-21T14:59:00;10.20;1.00
20839;DHT22;10580;51.092;6.828;2023-11-21T15:01:32;10.20;1.00
20839;DHT22;10580;51.092;6.828;2023-11-21T15:04:21;10.10;1.00
20839;DHT22;10580;51.092;6.828;2023-11-21T15:07:02;10.00;6.10
20839;DHT22;10580;51.092;6.828;2023-11-21T15:09:28;10.00;11.90
20839;DHT22;10580;51.092;6.828;2023-11-21T15:12:04;10.00;16.40
20839;DHT22;10580;51.092;6.828;2023-11-21T15:14:49;9.90;21.40
20839;DHT22;10580;51.092;6.828;2023-11-21T15:17:19;9.90;26.00
20839;DHT22;10580;51.092;6.828;2023-11-21T15:19:56;9.90;29.80
20839;DHT22;10580;51.092;6.828;2023-11-21T15:22:22;9.80;31.90
20839;DHT22;10580;51.092;6.828;2023-11-21T15:24:48;9.80;34.50
20839;DHT22;10580;51.092;6.828;2023-11-21T15:27:15;9.80;35.30
20839;DHT22;10580;51.092;6.828;2023-11-21T15:29:49;9.80;36.10
20839;DHT22;10580;51.092;6.828;2023-11-21T15:32:15;9.70;35.60
20839;DHT22;10580;51.092;6.828;2023-11-21T15:34:41;9.70;32.40
20839;DHT22;10580;51.092;6.828;2023-11-21T15:37:07;9.70;30.10
20839;DHT22;10580;51.092;6.828;2023-11-21T15:39:36;9.70;28.70
20839;DHT22;10580;51.092;6.828;2023-11-21T15:42:01;9.70;27.10
20839;DHT22;10580;51.092;6.828;2023-11-21T15:44:29;9.70;26.50
20839;DHT22;10580;51.092;6.828;2023-11-21T15:46:57;9.70;25.90
20839;DHT22;10580;51.092;6.828;2023-11-21T15:49:23;9.70;24.50
20839;DHT22;10580;51.092;6.828;2023-11-21T15:51:49;9.70;21.90
20839;DHT22;10580;51.092;6.828;2023-11-21T15:54:24;9.70;20.60
20839;DHT22;10580;51.092;6.828;2023-11-21T15:56:52;9.60;19.10
20839;DHT22;10580;51.092;6.828;2023-11-21T15:59:18;9.60;18.90
20839;DHT22;10580;51.092;6.828;2023-11-21T16:01:44;9.60;18.10
20839;DHT22;10580;51.092;6.828;2023-11-21T16:04:13;9.60;17.20
20839;DHT22;10580;51.092;6.828;2023-11-21T16:06:46;9.60;16.10